Time;durP1;ratioP1;P1;durP2;ratioP2;P2;SDS_P1;SDS_P2;PMS_P1;PMS_P2;Temp;Humidity;BMP_temperature;BMP_pressure;BME280_temperature;BME280_humidity;BME280_pressure;Samples;Min_cycle;Max_cycle;Signal;HPM_P1;HPM_P2
2022/02/01 00:02:08;;;;;;;4.83;1.20;;;3.70;99.90;;;;;;4973498;28;20436;-75
2022/02/01 00:04:49;;;;;;;1.63;1.40;;;3.70;99.90;;;;;;4974508;28;20921;-75
2022/02/01 00:07:27;;;;;;;1.97;0.80;;;3.70;99.90;;;;;;4988485;28;20854;-76
2022/02/01 00:10:05;;;;;;;2.10;1.10;;;3.70;99.90;;;;;;4982137;28;20428;-75
2022/02/01 00:18:05;;;;;;;3.47;1.40;;;3.60;99.90;;;;;;4954925;29;21064;-75
2022/02/01 00:20:49;;;;;;;2.33;0.90;;;3.60;99.90;;;;;;4955101;29;20412;-75
2022/02/01 00:34:41;;;;;;;1.67;1.20;;;3.50;99.90;;;;;;4954874;29;20458;-75
2022/02/01 00:37:01;;;;;;;1.43;1.10;;;3.50;99.90;;;;;;4954612;29;20395;-76
2022/02/01 00:39:40;;;;;;;1.17;0.97;;;3.60;99.90;;;;;;4954627;29;20490;-76
2022/02/01 00:42:06;;;;;;;2.60;1.07;;;3.60;99.90;;;;;;4954767;29;20406;-75
2022/02/01 00:44:32;;;;;;;6.10;1.33;;;3.60;99.90;;;;;;4954390;29;20417;-75
2022/02/01 00:46:57;;;;;;;3.33;1.30;;;3.50;99.90;;;;;;4955178;28;20491;-76
2022/02/01 00:49:24;;;;;;;4.33;0.83;;;3.50;99.90;;;;;;4954577;29;20188;-75
2022/02/01 00:51:49;;;;;;;4.53;1.37;;;3.40;99.90;;;;;;4954279;29;20696;-75
2022/02/01 00:54:16;;;;;;;2.10;1.60;;;3.30;99.90;;;;;;4954379;29;20437;-75
2022/02/01 00:56:42;;;;;;;2.10;1.20;;;3.20;99.90;;;;;;4954360;29;20675;-76
2022/02/01 00:59:07;;;;;;;1.87;1.30;;;3.10;99.90;;;;;;4954468;29;20414;-75
2022/02/01 05:30:49;;;;;;;3.97;1.47;;;3.10;99.90;;;;;;6006496;23;20393;-75
2022/02/01 05:33:15;;;;;;;7.20;1.40;;;3.00;99.90;;;;;;4969552;28;20831;-73
2022/02/01 05:35:41;;;;;;;7.40;2.23;;;3.00;99.90;;;;;;4964717;28;20218;-73
2022/02/01 05:38:06;;;;;;;9.47;2.47;;;3.00;99.90;;;;;;4974139;28;20177;-73
2022/02/01 05:40:32;;;;;;;16.13;2.27;;;3.00;99.90;;;;;;4973529;28;20255;-73
2022/02/01 05:45:24;;;;;;;11.40;2.73;;;3.00;99.90;;;;;;4973250;28;20398;-72
2022/02/01 05:47:51;;;;;;;17.40;1.63;;;2.90;99.90;;;;;;4973486;28;20648;-73
2022/02/01 05:50:16;;;;;;;18.37;3.20;;;3.00;99.90;;;;;;4973261;28;20455;-73
2022/02/01 05:52:42;;;;;;;7.40;1.40;;;3.00;99.90;;;;;;4973435;28;20425;-74
2022/02/01 05:55:11;;;;;;;5.10;1.63;;;2.90;99.90;;;;;;4973252;28;20287;-73
2022/02/01 05:57:37;;;;;;;18.30;2.80;;;2.90;99.90;;;;;;4973471;28;20164;-73
2022/02/01 06:00:04;;;;;;;5.53;1.97;;;2.90;99.90;;;;;;4972964;28;20831;-73
2022/02/01 06:02:30;;;;;;;8.23;1.50;;;2.90;99.90;;;;;;4973372;28;20263;-73
2022/02/01 06:04:55;;;;;;;8.60;1.73;;;2.80;99.90;;;;;;4972885;28;20393;-73
2022/02/01 06:07:21;;;;;;;7.70;1.73;;;2.80;99.90;;;;;;4971963;28;20180;-73
2022/02/01 06:09:46;;;;;;;16.70;2.50;;;2.80;99.90;;;;;;4973122;28;20211;-73
2022/02/01 06:12:12;;;;;;;10.00;1.80;;;2.80;99.90;;;;;;4972712;28;20629;-72
2022/02/01 06:14:38;;;;;;;9.13;2.97;;;2.80;99.90;;;;;;4975210;28;20219;-73
2022/02/01 06:17:05;;;;;;;15.77;1.73;;;2.90;99.90;;;;;;4977010;28;20168;-73
2022/02/01 06:19:31;;;;;;;9.77;1.50;;;2.80;99.90;;;;;;4977620;28;20185;-73
2022/02/01 06:21:57;;;;;;;10.00;1.83;;;2.90;99.90;;;;;;4977720;28;20438;-73
2022/02/01 06:24:22;;;;;;;14.57;2.50;;;2.90;99.90;;;;;;4977569;28;20386;-73
2022/02/01 06:26:48;;;;;;;15.10;2.60;;;2.90;99.90;;;;;;4976938;28;20251;-72
2022/02/01 06:29:14;;;;;;;19.40;2.80;;;2.90;99.90;;;;;;4976455;28;20187;-73
2022/02/01 06:31:39;;;;;;;11.20;3.10;;;2.90;99.90;;;;;;4975954;28;20721;-73
2022/02/01 06:34:05;;;;;;;15.90;2.73;;;2.80;99.90;;;;;;4974564;28;20257;-73
2022/02/01 06:36:30;;;;;;;9.63;1.93;;;2.80;99.90;;;;;;4975157;28;20179;-73
2022/02/01 06:38:56;;;;;;;11.40;2.07;;;2.80;99.90;;;;;;4975704;28;20522;-73
2022/02/01 06:41:22;;;;;;;9.10;1.77;;;2.80;99.90;;;;;;4977303;28;20192;-72
2022/02/01 06:43:48;;;;;;;14.27;3.17;;;2.80;99.90;;;;;;4992360;28;20207;-72
2022/02/01 06:46:14;;;;;;;19.23;2.77;;;2.80;99.90;;;;;;4977985;28;20203;-72
2022/02/01 06:48:40;;;;;;;22.27;4.37;;;2.80;99.90;;;;;;4978134;28;20196;-72
2022/02/01 06:51:06;;;;;;;12.17;2.93;;;2.80;99.90;;;;;;4976959;28;20891;-71
2022/02/01 06:53:34;;;;;;;6.73;1.77;;;2.80;99.90;;;;;;4977349;28;20191;-72
2022/02/01 06:56:07;;;;;;;12.93;1.97;;;2.80;99.90;;;;;;4977150;28;20205;-72
2022/02/01 06:58:33;;;;;;;14.40;2.33;;;2.80;99.90;;;;;;4977092;28;20394;-72
2022/02/01 07:00:59;;;;;;;13.90;1.83;;;2.90;99.90;;;;;;4976473;28;20807;-73
2022/02/01 07:03:25;;;;;;;13.40;1.77;;;2.90;99.90;;;;;;4976213;28;20879;-72
2022/02/01 07:05:50;;;;;;;7.53;1.43;;;2.80;99.90;;;;;;4976100;28;20549;-72
2022/02/01 07:08:16;;;;;;;15.17;2.80;;;2.80;99.90;;;;;;4975812;28;20783;-73
2022/02/01 07:10:42;;;;;;;9.03;2.00;;;2.80;99.90;;;;;;4976027;28;20588;-72
2022/02/01 07:13:08;;;;;;;6.50;2.30;;;2.80;99.90;;;;;;4975585;28;20194;-72
2022/02/01 07:15:34;;;;;;;9.80;1.93;;;2.80;99.90;;;;;;4974585;28;20754;-73
2022/02/01 07:18:00;;;;;;;8.20;1.67;;;2.90;99.90;;;;;;4975834;28;20420;-73
2022/02/01 07:20:26;;;;;;;16.70;2.30;;;2.90;99.90;;;;;;4975702;28;20189;-73
2022/02/01 07:22:51;;;;;;;10.17;1.37;;;2.80;99.90;;;;;;4975947;28;20209;-73
2022/02/01 07:25:25;;;;;;;14.33;2.07;;;2.80;99.90;;;;;;4975488;28;20193;-72
2022/02/01 07:27:52;;;;;;;6.97;1.93;;;2.80;99.90;;;;;;4976008;28;20389;-72
2022/02/01 07:30:23;;;;;;;11.20;2.63;;;2.80;99.90;;;;;;4977266;28;20433;-73
2022/02/01 07:32:49;;;;;;;5.07;1.33;;;2.80;99.90;;;;;;4975179;28;20510;-75
2022/02/01 07:35:15;;;;;;;13.13;1.60;;;2.90;99.90;;;;;;4975465;28;20478;-74
2022/02/01 07:37:42;;;;;;;15.97;1.53;;;2.80;99.90;;;;;;4975875;28;20395;-74
2022/02/01 07:40:09;;;;;;;7.40;1.30;;;2.90;99.90;;;;;;4975266;28;20231;-72
2022/02/01 07:42:35;;;;;;;4.20;1.70;;;3.00;99.90;;;;;;4975362;28;20404;-72
2022/02/01 07:45:03;;;;;;;10.53;1.80;;;3.00;99.90;;;;;;4975072;28;20424;-72
2022/02/01 07:47:29;;;;;;;19.23;1.93;;;3.00;99.90;;;;;;4975436;28;20516;-72
2022/02/01 07:49:54;;;;;;;5.90;1.80;;;3.00;99.90;;;;;;4975426;28;20491;-72
2022/02/01 07:52:20;;;;;;;6.30;1.83;;;3.00;99.90;;;;;;4975117;28;20214;-72
2022/02/01 07:54:46;;;;;;;10.90;2.47;;;3.10;99.90;;;;;;4974943;28;20473;-72
2022/02/01 07:57:13;;;;;;;8.03;1.73;;;3.10;99.90;;;;;;4974893;28;20234;-73
2022/02/01 07:59:39;;;;;;;9.37;1.70;;;3.20;99.90;;;;;;4975084;28;20467;-73
2022/02/01 08:02:05;;;;;;;7.83;1.87;;;3.30;99.90;;;;;;4974917;28;20449;-73
2022/02/01 08:04:34;;;;;;;5.80;2.03;;;3.30;99.90;;;;;;4975098;28;20199;-73
2022/02/01 08:07:03;;;;;;;7.53;1.10;;;3.40;99.90;;;;;;4974338;28;20503;-73
2022/02/01 08:09:37;;;;;;;5.60;1.33;;;3.40;99.90;;;;;;4994228;28;20400;-73
2022/02/01 08:12:12;;;;;;;9.60;1.63;;;3.40;99.90;;;;;;4995033;28;20421;-73
2022/02/01 08:22:39;;;;;;;5.60;1.40;;;3.60;99.90;;;;;;4994707;28;20401;-73
2022/02/01 08:25:06;;;;;;;18.83;2.50;;;3.60;99.90;;;;;;4994203;28;20481;-73
2022/02/01 08:27:32;;;;;;;6.80;2.20;;;3.70;99.90;;;;;;4994363;28;20449;-73
2022/02/01 08:30:03;;;;;;;7.93;2.23;;;3.80;99.90;;;;;;4994566;28;20418;-73
2022/02/01 08:32:29;;;;;;;7.73;1.87;;;3.80;99.90;;;;;;4994055;28;20258;-73
2022/02/01 08:34:55;;;;;;;2.37;1.10;;;3.80;99.90;;;;;;4994148;28;20477;-73
2022/02/01 08:37:21;;;;;;;9.00;1.67;;;3.80;99.90;;;;;;4993827;28;20444;-73
2022/02/01 08:39:48;;;;;;;7.60;2.40;;;3.90;99.90;;;;;;4994697;28;20394;-73
2022/02/01 08:42:14;;;;;;;13.30;1.63;;;3.90;99.90;;;;;;4994075;28;20207;-74
2022/02/01 08:44:40;;;;;;;10.43;1.80;;;3.90;99.90;;;;;;4994237;28;20402;-73
2022/02/01 08:47:05;;;;;;;14.13;2.00;;;3.80;99.90;;;;;;4994496;28;20262;-73
2022/02/01 08:49:32;;;;;;;5.13;1.50;;;3.90;99.90;;;;;;4992861;28;20632;-73
2022/02/01 08:52:01;;;;;;;5.03;2.10;;;3.90;99.90;;;;;;4993976;28;20420;-73
2022/02/01 08:54:29;;;;;;;10.67;2.10;;;4.00;99.90;;;;;;4993960;28;20443;-73
2022/02/01 08:59:39;;;;;;;7.90;1.80;;;4.20;99.90;;;;;;4994069;28;20531;-73
2022/02/01 09:02:06;;;;;;;7.30;1.80;;;4.20;99.90;;;;;;4993529;28;20530;-74
2022/02/01 09:04:32;;;;;;;6.33;2.10;;;4.20;99.90;;;;;;4993622;28;20886;-73
2022/02/01 09:07:00;;;;;;;5.10;1.43;;;4.20;99.90;;;;;;4993573;28;20444;-74
2022/02/01 09:09:28;;;;;;;5.13;1.63;;;4.20;99.90;;;;;;4994158;28;20431;-73
2022/02/01 09:11:53;;;;;;;12.50;2.10;;;4.10;99.90;;;;;;4994325;28;20512;-72
2022/02/01 09:14:19;;;;;;;9.00;2.07;;;4.10;99.90;;;;;;4994539;28;20537;-72
2022/02/01 09:16:45;;;;;;;4.33;1.50;;;4.20;99.90;;;;;;4993886;28;20189;-73
2022/02/01 09:19:11;;;;;;;4.73;1.53;;;4.30;99.90;;;;;;4993731;28;20255;-72
2022/02/01 09:21:37;;;;;;;4.30;2.37;;;4.30;99.90;;;;;;4992237;28;20227;-72
2022/02/01 09:24:03;;;;;;;6.13;1.40;;;4.40;99.90;;;;;;4993789;28;20180;-73
2022/02/01 09:26:29;;;;;;;7.03;2.30;;;4.30;99.90;;;;;;4994826;28;20981;-73
2022/02/01 09:28:55;;;;;;;4.03;1.60;;;4.30;99.90;;;;;;4995905;28;20182;-72
2022/02/01 09:31:21;;;;;;;6.03;1.30;;;4.40;99.90;;;;;;4994224;28;20460;-72
2022/02/01 09:33:47;;;;;;;16.40;2.20;;;4.50;99.90;;;;;;4994665;28;20179;-74
2022/02/01 09:36:12;;;;;;;5.23;1.20;;;4.60;99.90;;;;;;4994430;28;20464;-73
2022/02/01 09:38:38;;;;;;;5.70;2.10;;;4.60;99.90;;;;;;4994529;28;20207;-73
2022/02/01 09:41:04;;;;;;;5.70;1.10;;;4.50;99.90;;;;;;4994431;28;20559;-73
2022/02/01 09:43:30;;;;;;;3.87;1.20;;;4.50;99.90;;;;;;4994578;28;20692;-73
2022/02/01 09:46:00;;;;;;;3.03;1.20;;;4.60;99.90;;;;;;4995008;28;20429;-73
2022/02/01 09:48:27;;;;;;;8.17;2.23;;;4.70;99.90;;;;;;5005614;23;22114;-72
2022/02/01 09:50:53;;;;;;;8.57;1.70;;;4.70;99.90;;;;;;4976472;28;20560;-72
2022/02/01 09:53:19;;;;;;;6.73;2.00;;;4.70;99.90;;;;;;4991815;28;20409;-72
2022/02/01 09:55:46;;;;;;;3.80;1.33;;;4.70;99.90;;;;;;4991069;28;20529;-72
2022/02/01 09:58:13;;;;;;;12.70;1.27;;;4.80;99.90;;;;;;4991730;28;20418;-73
2022/02/01 10:00:45;;;;;;;5.07;1.37;;;4.80;99.90;;;;;;4990929;28;20828;-73
2022/02/01 10:03:19;;;;;;;3.80;1.10;;;4.80;99.90;;;;;;4992043;28;20786;-72
2022/02/01 10:06:06;;;;;;;4.60;1.27;;;4.90;99.90;;;;;;4991873;28;20442;-73
2022/02/01 10:08:32;;;;;;;9.00;1.83;;;4.90;99.90;;;;;;4992087;28;20455;-73
2022/02/01 10:10:58;;;;;;;12.40;1.60;;;5.00;99.90;;;;;;4991634;28;20463;-73
2022/02/01 10:13:23;;;;;;;6.80;1.87;;;5.00;99.90;;;;;;4991585;28;20181;-73
2022/02/01 10:16:10;;;;;;;1.97;1.20;;;5.10;99.90;;;;;;4992014;28;20204;-72
2022/02/01 10:18:36;;;;;;;3.20;1.03;;;5.30;99.90;;;;;;4992111;28;20173;-73
2022/02/01 10:21:19;;;;;;;6.57;1.10;;;5.60;99.90;;;;;;4991830;28;20749;-73
2022/02/01 10:23:46;;;;;;;5.83;1.10;;;6.00;99.90;;;;;;4991642;28;20181;-73
2022/02/01 10:26:17;;;;;;;3.60;1.23;;;6.10;99.90;;;;;;4991997;28;20411;-74
2022/02/01 10:36:56;;;;;;;2.27;0.90;;;6.30;99.90;;;;;;4990838;28;20398;-73
2022/02/01 10:39:25;;;;;;;6.10;1.53;;;5.80;99.90;;;;;;4991629;28;20404;-73
2022/02/01 10:41:56;;;;;;;5.90;1.90;;;5.70;99.90;;;;;;4991771;28;20425;-73
2022/02/01 10:44:22;;;;;;;11.47;1.10;;;5.70;99.90;;;;;;4991437;28;20383;-73
2022/02/01 10:46:53;;;;;;;3.50;1.13;;;5.60;99.90;;;;;;4991928;28;20449;-74
2022/02/01 10:49:29;;;;;;;6.93;1.30;;;5.60;99.90;;;;;;4991530;28;20654;-73
2022/02/01 10:52:12;;;;;;;5.57;0.90;;;5.60;99.90;;;;;;4990477;28;20448;-72
2022/02/01 10:54:40;;;;;;;1.80;1.17;;;5.50;99.90;;;;;;4991264;28;20862;-73
2022/02/01 10:57:08;;;;;;;8.80;1.03;;;5.50;99.90;;;;;;4990849;28;20470;-75
2022/02/01 10:59:35;;;;;;;11.97;1.50;;;5.50;99.90;;;;;;4991735;28;20392;-74
2022/02/01 11:02:03;;;;;;;7.67;1.40;;;5.40;99.90;;;;;;4995694;28;20441;-73
2022/02/01 11:04:31;;;;;;;4.00;1.23;;;5.30;99.90;;;;;;4994936;28;20402;-73
2022/02/01 11:06:56;;;;;;;3.67;1.00;;;5.20;99.90;;;;;;4995444;28;20799;-73
2022/02/01 11:09:25;;;;;;;4.30;1.00;;;5.20;99.90;;;;;;4995140;28;20481;-73
2022/02/01 11:11:52;;;;;;;8.63;1.00;;;5.10;99.90;;;;;;4995137;28;20212;-74
2022/02/01 11:14:25;;;;;;;3.77;1.13;;;5.10;99.90;;;;;;4994824;28;20416;-74
2022/02/01 11:17:05;;;;;;;6.10;1.07;;;5.10;99.90;;;;;;4994935;28;20399;-74
2022/02/01 11:19:32;;;;;;;10.23;1.67;;;5.00;99.90;;;;;;4995065;28;20441;-73
2022/02/01 11:21:57;;;;;;;15.37;3.30;;;5.00;99.90;;;;;;4994814;28;20438;-75
2022/02/01 11:24:34;;;;;;;1.73;1.30;;;5.00;99.90;;;;;;4994554;28;20411;-73
2022/02/01 11:27:19;;;;;;;10.00;1.20;;;5.00;99.90;;;;;;4995016;28;20202;-73
2022/02/01 11:32:35;;;;;;;6.57;1.10;;;5.00;99.90;;;;;;4994594;28;20473;-74
2022/02/01 11:35:06;;;;;;;8.37;1.07;;;5.00;99.90;;;;;;4994558;28;20462;-73
2022/02/01 11:37:32;;;;;;;7.10;1.00;;;5.20;99.90;;;;;;4995165;28;20432;-74
2022/02/01 11:39:58;;;;;;;6.70;0.97;;;5.30;99.90;;;;;;4994775;28;20412;-74
2022/02/01 11:42:33;;;;;;;3.40;0.93;;;5.40;99.90;;;;;;4994355;28;20188;-74
2022/02/01 11:45:07;;;;;;;2.70;1.00;;;5.30;99.90;;;;;;4994604;28;20418;-73
2022/02/01 11:47:36;;;;;;;1.90;1.17;;;5.20;99.90;;;;;;4994450;28;20437;-73
2022/02/01 11:50:12;;;;;;;3.47;0.83;;;5.10;99.90;;;;;;4994706;28;20496;-73
2022/02/01 11:52:46;;;;;;;4.23;0.90;;;5.00;99.90;;;;;;4994234;28;20445;-72
2022/02/01 11:55:13;;;;;;;5.20;1.57;;;4.90;99.90;;;;;;4994123;28;20835;-74
2022/02/01 11:57:44;;;;;;;7.17;1.30;;;4.80;99.90;;;;;;4992983;28;20424;-74
2022/02/01 12:00:17;;;;;;;9.43;1.53;;;4.70;99.90;;;;;;4994208;28;20886;-74
2022/02/01 12:02:49;;;;;;;3.27;1.00;;;4.70;99.90;;;;;;4994135;28;20434;-72
2022/02/01 12:05:28;;;;;;;4.30;1.27;;;4.60;99.90;;;;;;4994066;28;20447;-73
2022/02/01 12:08:13;;;;;;;5.70;1.20;;;4.70;99.90;;;;;;4993050;28;20401;-73
2022/02/01 12:10:42;;;;;;;1.00;0.70;;;4.70;99.90;;;;;;4992469;28;20478;-73
2022/02/01 12:13:11;;;;;;;2.27;0.83;;;4.60;99.90;;;;;;4993120;28;20420;-73
2022/02/01 12:15:40;;;;;;;3.60;1.60;;;4.60;99.90;;;;;;4993687;28;20458;-71
2022/02/01 12:18:24;;;;;;;2.03;0.70;;;4.60;99.90;;;;;;4994157;28;20411;-74
2022/02/01 12:21:04;;;;;;;1.27;0.90;;;4.60;99.90;;;;;;4992660;28;20442;-73
2022/02/01 12:23:30;;;;;;;0.90;0.90;;;4.50;99.90;;;;;;4993858;28;21231;-73
2022/02/01 12:25:56;;;;;;;3.10;1.10;;;4.50;99.90;;;;;;4993716;28;20419;-73
2022/02/01 12:28:23;;;;;;;3.43;0.63;;;4.40;99.90;;;;;;4993525;28;20637;-73
2022/02/01 12:30:51;;;;;;;1.40;0.83;;;4.40;99.90;;;;;;4993114;28;20199;-74
2022/02/01 12:33:20;;;;;;;2.43;0.80;;;4.40;99.90;;;;;;4993126;28;20397;-74
2022/02/01 12:35:49;;;;;;;4.90;1.10;;;4.50;99.90;;;;;;4993261;28;20455;-73
2022/02/01 12:38:20;;;;;;;3.33;0.90;;;4.50;99.90;;;;;;4993698;28;20395;-74
2022/02/01 12:41:00;;;;;;;3.93;1.00;;;4.60;99.90;;;;;;4992228;28;20402;-74
2022/02/01 12:43:30;;;;;;;2.77;0.83;;;4.60;99.90;;;;;;4993160;28;20498;-73
2022/02/01 12:48:27;;;;;;;1.10;1.00;;;4.50;99.90;;;;;;4993345;28;20446;-75
2022/02/01 12:51:04;;;;;;;2.63;0.70;;;4.60;99.90;;;;;;4993297;28;20417;-73
2022/02/01 12:53:44;;;;;;;3.23;1.13;;;4.50;99.90;;;;;;4993193;28;20393;-74
2022/02/01 12:56:15;;;;;;;1.83;0.50;;;4.60;99.90;;;;;;4993008;28;20525;-73
2022/02/01 12:58:41;;;;;;;5.00;0.60;;;4.60;99.90;;;;;;4992797;28;20424;-74
2022/02/01 13:01:07;;;;;;;2.03;1.10;;;4.60;99.90;;;;;;4991775;28;20484;-74
2022/02/01 13:03:59;;;;;;;1.43;0.60;;;4.60;99.90;;;;;;4992973;28;20176;-73
2022/02/01 13:06:27;;;;;;;1.97;0.70;;;4.60;99.90;;;;;;4990265;28;20267;-74
2022/02/01 13:17:14;;;;;;;6.43;0.83;;;4.70;99.90;;;;;;4992899;28;20424;-74
2022/02/01 13:22:29;;;;;;;0.50;0.50;;;4.90;99.90;;;;;;4992806;28;20955;-74
2022/02/01 13:25:06;;;;;;;0.97;0.50;;;4.90;99.90;;;;;;4992618;28;20390;-74
2022/02/01 13:27:35;;;;;;;1.63;0.60;;;4.90;99.90;;;;;;4992473;28;20259;-74
2022/02/01 13:30:07;;;;;;;4.57;0.80;;;4.90;99.90;;;;;;4991491;28;20835;-74
2022/02/01 13:32:38;;;;;;;0.90;0.90;;;4.90;99.90;;;;;;4991262;28;20448;-74
2022/02/01 13:35:10;;;;;;;1.33;0.57;;;4.80;99.90;;;;;;4992594;28;20848;-73
2022/02/01 13:37:36;;;;;;;0.70;0.60;;;4.80;99.90;;;;;;4995231;28;20400;-73
2022/02/01 13:40:21;;;;;;;1.37;0.80;;;4.80;99.90;;;;;;5002191;28;20474;-73
2022/02/01 13:42:47;;;;;;;1.13;0.63;;;4.80;99.90;;;;;;4995627;28;20434;-73
2022/02/01 13:45:14;;;;;;;2.40;0.73;;;4.70;99.90;;;;;;4992814;28;20412;-73
2022/02/01 13:47:42;;;;;;;1.10;0.60;;;4.60;99.90;;;;;;4992155;28;20168;-73
2022/02/01 13:50:20;;;;;;;1.23;0.60;;;4.60;99.90;;;;;;4992024;28;20440;-74
2022/02/01 13:53:02;;;;;;;0.77;0.60;;;4.60;99.90;;;;;;4992109;28;20474;-71
2022/02/01 13:55:30;;;;;;;1.27;1.13;;;4.60;99.90;;;;;;4992156;28;20529;-73
2022/02/01 13:58:17;;;;;;;4.83;0.90;;;4.60;99.90;;;;;;4992151;28;20416;-72
2022/02/01 14:00:47;;;;;;;1.30;0.80;;;4.60;99.90;;;;;;4991960;28;20530;-72
2022/02/01 14:12:09;;;;;;;1.60;0.97;;;4.60;99.90;;;;;;4991631;28;20443;-73
2022/02/01 14:16:07;;;;;;;2.60;0.73;;;4.50;99.90;;;;;;4991801;28;20236;-72
2022/02/01 14:28:29;;;;;;;3.83;0.80;;;4.10;99.90;;;;;;4991878;28;20747;-72
2022/02/01 14:36:09;;;;;;;2.20;1.00;;;4.10;99.90;;;;;;4994870;28;20458;-74
2022/02/01 14:38:59;;;;;;;2.93;0.70;;;4.00;99.90;;;;;;4994899;28;20458;-74
2022/02/01 14:46:29;;;;;;;1.50;1.10;;;3.90;99.90;;;;;;4995728;28;20931;-74
2022/02/01 14:48:55;;;;;;;1.57;0.97;;;3.70;99.90;;;;;;4995631;28;20202;-73
2022/02/01 14:51:21;;;;;;;3.00;1.53;;;3.60;99.90;;;;;;4994106;28;20258;-71
2022/02/01 14:53:47;;;;;;;9.27;1.43;;;3.50;99.90;;;;;;4995541;28;20547;-74
2022/02/01 14:56:27;;;;;;;4.80;1.23;;;3.50;99.90;;;;;;4995523;28;20274;-73
2022/02/01 15:12:18;;;;;;;3.60;1.20;;;3.10;99.90;;;;;;4995187;28;20823;-72
2022/02/01 15:14:44;;;;;;;3.83;1.10;;;3.00;99.90;;;;;;4995026;28;20445;-74
2022/02/01 15:17:14;;;;;;;2.93;1.20;;;3.00;99.90;;;;;;4995091;28;20425;-74
2022/02/01 15:19:40;;;;;;;2.03;1.10;;;3.00;99.90;;;;;;4995711;28;20216;-74
2022/02/01 15:22:05;;;;;;;4.00;1.20;;;3.00;99.90;;;;;;4995501;28;20435;-75
2022/02/01 15:24:31;;;;;;;1.17;0.97;;;3.10;99.90;;;;;;4995648;28;20393;-73
2022/02/01 15:26:57;;;;;;;3.33;1.20;;;3.00;99.90;;;;;;4994875;28;20183;-73
2022/02/01 15:29:22;;;;;;;3.30;1.13;;;3.00;99.90;;;;;;4994521;28;20214;-74
2022/02/01 15:31:48;;;;;;;1.07;0.90;;;3.00;99.90;;;;;;4994655;28;20192;-75
2022/02/01 15:34:14;;;;;;;4.60;1.50;;;3.00;99.90;;;;;;4994492;28;20180;-74
2022/02/01 15:36:39;;;;;;;4.97;1.20;;;3.00;99.90;;;;;;4994657;28;20180;-73
2022/02/01 15:54:22;;;;;;;3.03;1.30;;;3.20;99.90;;;;;;4993140;28;20408;-75
2022/02/01 15:58:28;;;;;;;2.50;1.40;;;3.20;99.90;;;;;;4994145;28;20918;-73
2022/02/01 16:00:55;;;;;;;4.00;1.30;;;3.30;99.90;;;;;;4994094;28;20473;-74
2022/02/01 16:03:23;;;;;;;3.70;0.80;;;3.30;99.90;;;;;;4993896;28;20446;-74
2022/02/01 16:05:49;;;;;;;2.43;0.90;;;3.30;99.90;;;;;;4994336;28;20836;-73
2022/02/01 16:08:25;;;;;;;1.47;0.77;;;3.30;99.90;;;;;;4993890;28;20406;-74
2022/02/01 16:10:56;;;;;;;2.40;1.00;;;3.40;99.90;;;;;;4977856;28;20209;-73
2022/02/01 16:13:33;;;;;;;1.20;1.00;;;3.40;99.90;;;;;;4992500;28;20445;-73
2022/02/01 16:15:58;;;;;;;4.23;0.93;;;3.40;99.90;;;;;;4991276;28;20435;-73
2022/02/01 16:18:24;;;;;;;2.87;0.90;;;3.50;99.90;;;;;;4992364;28;20421;-74
2022/02/01 16:20:49;;;;;;;1.77;1.00;;;3.50;99.90;;;;;;4984618;28;20599;-74
2022/02/01 16:23:15;;;;;;;1.30;0.70;;;3.50;99.90;;;;;;4988242;28;20171;-73
2022/02/01 16:25:41;;;;;;;1.87;0.70;;;3.60;99.90;;;;;;4992844;28;20677;-72
2022/02/01 16:28:06;;;;;;;1.13;0.57;;;3.80;99.90;;;;;;4989872;28;20186;-71
2022/02/01 16:30:36;;;;;;;2.93;1.03;;;3.90;99.90;;;;;;4993213;28;20552;-72
2022/02/01 16:33:01;;;;;;;1.27;0.80;;;4.00;99.90;;;;;;4993526;28;20163;-74
2022/02/01 16:35:27;;;;;;;0.80;0.80;;;4.00;99.90;;;;;;4992615;28;20497;-72
2022/02/01 16:37:52;;;;;;;2.43;0.90;;;3.90;99.90;;;;;;4988475;28;20183;-73
2022/02/01 16:40:20;;;;;;;3.30;0.80;;;3.90;99.90;;;;;;4993168;28;20590;-74
2022/02/01 16:42:46;;;;;;;1.40;1.30;;;4.00;99.90;;;;;;4993197;28;20184;-74
2022/02/01 16:45:12;;;;;;;2.30;1.00;;;3.90;99.90;;;;;;4993667;28;20381;-75
2022/02/01 16:47:40;;;;;;;1.70;0.90;;;4.00;99.90;;;;;;4993144;28;20499;-74
2022/02/01 16:50:11;;;;;;;0.70;0.70;;;4.00;99.90;;;;;;4993456;28;20188;-74
2022/02/01 16:52:42;;;;;;;1.73;0.70;;;3.90;99.90;;;;;;4993496;28;20444;-76
2022/02/01 16:55:27;;;;;;;0.60;0.60;;;4.00;99.90;;;;;;4992402;28;21008;-73
2022/02/01 16:57:56;;;;;;;0.50;0.50;;;4.10;99.90;;;;;;4993286;28;20943;-73
2022/02/01 17:00:30;;;;;;;1.00;0.90;;;4.10;99.90;;;;;;4991726;28;20413;-73
2022/02/01 17:03:00;;;;;;;0.67;0.67;;;4.20;99.90;;;;;;4990075;28;20510;-73
2022/02/01 17:05:27;;;;;;;0.80;0.60;;;4.20;99.90;;;;;;4986735;28;20739;-73
2022/02/01 17:07:53;;;;;;;0.60;0.60;;;4.20;99.90;;;;;;4985612;28;20434;-76
2022/02/01 17:10:21;;;;;;;1.07;0.60;;;4.30;99.90;;;;;;4987459;28;20421;-73
2022/02/01 17:13:04;;;;;;;0.50;0.50;;;4.40;99.90;;;;;;4992750;28;20451;-71
2022/02/01 17:18:28;;;;;;;0.50;0.50;;;4.50;99.90;;;;;;4993136;28;20923;-73
2022/02/01 17:23:38;;;;;;;0.40;0.40;;;4.60;99.90;;;;;;4992639;28;20427;-72
2022/02/01 17:26:04;;;;;;;0.50;0.40;;;4.70;99.90;;;;;;4988053;28;20422;-73
2022/02/01 17:28:30;;;;;;;1.33;0.40;;;4.80;99.90;;;;;;4991537;28;20317;-73
2022/02/01 17:30:55;;;;;;;0.30;0.30;;;4.90;99.90;;;;;;4992653;28;20968;-74
2022/02/01 17:33:21;;;;;;;1.90;0.70;;;4.90;99.90;;;;;;4992083;28;20478;-74
2022/02/01 17:35:49;;;;;;;0.60;0.50;;;4.90;99.90;;;;;;4992744;28;20209;-73
2022/02/01 17:38:19;;;;;;;0.50;0.50;;;5.00;99.90;;;;;;4992908;28;20200;-73
2022/02/01 17:40:46;;;;;;;0.50;0.50;;;5.00;99.90;;;;;;4992524;28;20420;-73
2022/02/01 17:43:13;;;;;;;0.70;0.50;;;5.00;99.90;;;;;;4990161;28;20412;-73
2022/02/01 17:45:47;;;;;;;0.90;0.60;;;5.00;99.90;;;;;;4992553;28;20550;-74
2022/02/01 17:48:16;;;;;;;0.40;0.40;;;5.00;99.90;;;;;;4989626;28;20959;-74
2022/02/01 17:55:46;;;;;;;0.40;0.40;;;5.20;99.90;;;;;;4992254;28;20463;-73
2022/02/01 17:58:12;;;;;;;1.47;0.40;;;5.20;99.90;;;;;;4992642;28;20415;-74
2022/02/01 18:00:39;;;;;;;0.40;0.40;;;5.20;99.90;;;;;;4992532;28;20267;-74
2022/02/01 18:03:04;;;;;;;0.40;0.40;;;5.20;99.90;;;;;;4992620;28;20773;-73
2022/02/01 18:05:30;;;;;;;0.40;0.40;;;5.20;99.90;;;;;;4992809;28;20499;-73
2022/02/01 18:07:56;;;;;;;0.40;0.40;;;5.20;99.90;;;;;;4992846;28;20178;-73
2022/02/01 18:10:21;;;;;;;0.33;0.33;;;5.30;99.90;;;;;;4991791;28;20218;-74
2022/02/01 18:13:03;;;;;;;0.50;0.47;;;5.30;99.90;;;;;;4992436;28;20203;-71
2022/02/01 18:15:31;;;;;;;0.40;0.40;;;5.20;99.90;;;;;;4992566;28;20202;-74
2022/02/01 18:17:58;;;;;;;0.40;0.40;;;5.30;99.90;;;;;;4992579;28;20407;-72
2022/02/01 18:20:24;;;;;;;0.60;0.40;;;5.30;99.90;;;;;;4992401;28;20450;-73
2022/02/01 18:22:50;;;;;;;0.60;0.40;;;5.30;99.90;;;;;;4991669;28;20838;-73
2022/02/01 18:25:18;;;;;;;0.40;0.30;;;5.30;99.90;;;;;;4987577;28;20435;-72
2022/02/01 18:27:44;;;;;;;1.47;0.30;;;5.30;99.90;;;;;;4991261;28;20188;-73
2022/02/01 18:30:22;;;;;;;0.57;0.40;;;5.30;99.90;;;;;;4992530;28;20390;-73
2022/02/01 18:32:49;;;;;;;0.83;0.83;;;5.40;99.90;;;;;;4992516;28;20433;-71
2022/02/01 18:35:20;;;;;;;0.40;0.37;;;5.30;99.90;;;;;;4992757;28;20487;-73
2022/02/01 18:37:54;;;;;;;1.53;0.60;;;5.30;99.90;;;;;;4993316;28;20776;-73
2022/02/01 18:40:23;;;;;;;1.47;0.43;;;5.30;99.90;;;;;;4992850;28;20439;-73
2022/02/01 18:43:02;;;;;;;0.50;0.40;;;5.30;99.90;;;;;;4992007;28;20469;-71
2022/02/01 18:45:30;;;;;;;0.60;0.50;;;5.30;99.90;;;;;;4992187;28;20511;-74
2022/02/01 18:48:03;;;;;;;0.50;0.50;;;5.40;99.90;;;;;;4992555;28;20810;-73
2022/02/01 18:50:41;;;;;;;0.50;0.50;;;5.40;99.90;;;;;;4992234;28;20480;-73
2022/02/01 18:56:10;;;;;;;0.57;0.50;;;5.40;99.90;;;;;;4990401;28;20524;-73
2022/02/01 18:58:44;;;;;;;0.40;0.40;;;5.50;99.90;;;;;;4992134;28;20475;-74
2022/02/01 19:12:28;;;;;;;2.10;0.70;;;5.50;99.90;;;;;;4991815;28;20477;-74
2022/02/01 19:14:54;;;;;;;0.60;0.60;;;5.50;99.90;;;;;;4990160;28;21013;-73
2022/02/01 19:17:20;;;;;;;2.23;0.50;;;5.50;99.90;;;;;;4991734;28;20461;-73
2022/02/01 19:19:46;;;;;;;0.60;0.60;;;5.60;99.90;;;;;;4990232;28;20443;-73
2022/02/01 19:22:11;;;;;;;0.47;0.47;;;5.60;99.90;;;;;;4993930;28;20645;-73
2022/02/01 19:24:38;;;;;;;0.53;0.50;;;5.60;99.90;;;;;;4994743;28;20211;-73
2022/02/01 19:27:05;;;;;;;3.60;0.50;;;5.60;99.90;;;;;;4994407;28;20213;-73
2022/02/01 19:29:31;;;;;;;0.40;0.40;;;5.60;99.90;;;;;;4994491;28;20410;-73
2022/02/01 19:31:58;;;;;;;1.90;0.40;;;5.60;99.90;;;;;;4994476;28;20484;-73
2022/02/01 19:34:34;;;;;;;0.40;0.40;;;5.60;99.90;;;;;;4994399;28;20530;-72
2022/02/01 19:37:00;;;;;;;1.67;0.43;;;5.60;99.90;;;;;;4994672;28;20451;-72
2022/02/01 19:39:28;;;;;;;0.50;0.40;;;5.60;99.90;;;;;;4994376;28;20426;-72
2022/02/01 19:41:55;;;;;;;0.50;0.43;;;5.60;99.90;;;;;;4994272;28;20798;-72
2022/02/01 19:44:38;;;;;;;0.40;0.40;;;5.60;99.90;;;;;;4994276;28;20864;-73
2022/02/01 19:49:46;;;;;;;0.40;0.40;;;5.70;99.90;;;;;;4994370;28;20475;-73
2022/02/01 19:52:11;;;;;;;0.60;0.50;;;5.80;99.90;;;;;;4994164;28;20517;-71
2022/02/01 19:54:37;;;;;;;0.60;0.40;;;5.80;99.90;;;;;;4994204;28;20213;-72
2022/02/01 19:57:03;;;;;;;1.70;0.70;;;5.80;99.90;;;;;;4994161;28;20217;-72